Flight Track Log - Related Links

Times and Time Zones

All times are in EDT time to prevent confusion due to time zone crossing. See the SVA1428 flight status page for this flight to view local times or setup timezone preferences in your user account.

Time Position Orientation Groundspeed Altitude Reporting Facility
EDT Latitude Longitude Course Direction KTS MPH feet Rate Location/Type
Wed 10:48:00 PM 22.0084 39.2181 10° North  Level Estimated
Wed 10:49:00 PM 22.0906 39.2336 10° North  Level Estimated
Wed 10:50:00 PM 22.1728 39.2490 10° North  Level Estimated
Wed 10:51:00 PM 22.2550 39.2645 10° North  Level Estimated
Wed 10:52:00 PM 22.3372 39.2800 10° North  Level Estimated
Wed 10:53:00 PM 22.4194 39.2955 10° North  Level Estimated
Wed 10:54:00 PM 22.5016 39.3110 10° North  Level Estimated
Wed 10:55:00 PM 22.5838 39.3266 10° North  Level Estimated
Wed 10:56:00 PM 22.6660 39.3422 10° North  Level Estimated
Wed 10:57:00 PM 22.7482 39.3577 10° North  Level Estimated
Wed 10:58:00 PM 22.8304 39.3733 10° North  Level Estimated
Wed 10:59:00 PM 22.9126 39.3890 10° North  Level Estimated
Wed 11:00:00 PM 22.9948 39.4046 10° North  Level Estimated
Wed 11:01:00 PM 23.0770 39.4203 10° North  Level Estimated
Wed 11:02:00 PM 23.1591 39.4360 10° North  Level Estimated
Wed 11:03:00 PM 23.2413 39.4517 10° North  Level Estimated
Wed 11:04:00 PM 23.3235 39.4674 10° North  Level Estimated
Wed 11:05:00 PM 23.4057 39.4831 10° North  Level Estimated
Wed 11:06:00 PM 23.4879 39.4989 10° North  Level Estimated
Wed 11:07:00 PM 23.5700 39.5146 10° North  Level Estimated
Wed 11:08:00 PM 23.6522 39.5304 10° North  Level Estimated
Wed 11:09:00 PM 23.7344 39.5463 10° North  Level Estimated
Wed 11:10:00 PM 23.8166 39.5621 10° North  Level Estimated
Wed 11:11:00 PM 23.8987 39.5780 10° North  Level Estimated
Wed 11:12:00 PM 23.9809 39.5938 10° North  Level Estimated
Wed 11:13:00 PM 24.0631 39.6097 10° North  Level Estimated
Wed 11:14:00 PM 24.1452 39.6257 10° North  Level Estimated
Wed 11:15:00 PM 24.2274 39.6416 10° North  Level Estimated
Wed 11:16:00 PM 24.3096 39.6576 10° North  Level Estimated
Wed 11:17:00 PM 24.3917 39.6735 10° North  Level Estimated
Wed 11:18:00 PM 24.4739 39.6895 10° North  Level Estimated
Wed 11:19:00 PM 24.5534 39.7051 10° North  Level Estimated
Wed 11:20:00 PM 24.5534 39.7051 North  Level Estimated
Wed 11:21:00 PM 24.5534 39.7051 North  Level Estimated

Login

Don't have an account? Register now (free) for customized features, flight alerts, and more!